createdAt,value
2019-04-01T00:01:46.991Z,7.85
2019-04-01T00:04:17.044Z,7.80
2019-04-01T00:06:47.061Z,7.74
2019-04-01T00:09:17.004Z,7.68
2019-04-01T00:11:46.972Z,7.68
2019-04-01T00:14:17.207Z,7.72
2019-04-01T00:16:47.107Z,7.72
2019-04-01T00:19:17.813Z,7.72
2019-04-01T00:21:47.571Z,7.70
2019-04-01T00:24:17.475Z,7.67
2019-04-01T00:26:47.757Z,7.64
2019-04-01T00:29:18.414Z,7.58
2019-04-01T00:31:48.492Z,7.53
2019-04-01T00:34:19.007Z,7.49
2019-04-01T00:36:49.309Z,7.46
2019-04-01T00:39:19.515Z,7.39
2019-04-01T00:42:00.266Z,7.36
2019-04-01T00:44:30.034Z,7.29
2019-04-01T00:47:00.065Z,7.25
2019-04-01T00:49:30.338Z,7.17
2019-04-01T00:52:00.418Z,7.06
2019-04-01T00:54:30.595Z,6.91
2019-04-01T00:57:00.605Z,6.78
2019-04-01T00:59:31.485Z,6.67
2019-04-01T01:02:02.070Z,6.63
2019-04-01T01:04:32.169Z,6.61
2019-04-01T01:07:02.488Z,6.64
2019-04-01T01:09:32.264Z,6.73
2019-04-01T01:12:02.331Z,6.81
2019-04-01T01:14:32.380Z,6.87
2019-04-01T01:17:02.482Z,6.94
2019-04-01T01:19:32.583Z,6.98
2019-04-01T01:22:02.472Z,6.98
2019-04-01T01:24:32.739Z,6.96
2019-04-01T01:27:03.368Z,6.95
2019-04-01T01:29:33.649Z,6.92
2019-04-01T01:32:03.867Z,6.94
2019-04-01T01:34:34.554Z,6.97
2019-04-01T01:37:04.550Z,6.98
2019-04-01T01:39:34.555Z,7.04
2019-04-01T01:42:05.052Z,7.05
2019-04-01T01:44:36.057Z,7.06
2019-04-01T01:47:06.047Z,7.07
2019-04-01T01:49:36.050Z,7.01
2019-04-01T01:52:06.230Z,6.98
2019-04-01T01:54:36.328Z,6.94
2019-04-01T01:57:06.536Z,6.91
2019-04-01T01:59:36.630Z,6.82
2019-04-01T02:02:07.500Z,6.67
2019-04-01T02:04:37.379Z,6.57
2019-04-01T02:07:07.390Z,6.54
2019-04-01T02:09:37.357Z,6.57
2019-04-01T02:12:07.648Z,6.51
2019-04-01T02:14:38.029Z,6.36
2019-04-01T02:17:08.642Z,6.20
2019-04-01T02:19:38.875Z,6.05
2019-04-01T02:22:09.084Z,5.92
2019-04-01T02:24:38.980Z,5.83
2019-04-01T02:27:09.010Z,5.79
2019-04-01T02:29:39.057Z,5.70
2019-04-01T02:32:09.048Z,5.64
2019-04-01T02:34:39.512Z,5.64
2019-04-01T02:37:09.790Z,5.54
2019-04-01T02:39:39.774Z,5.50
2019-04-01T02:42:10.397Z,5.48
2019-04-01T02:44:40.586Z,5.42
2019-04-01T02:47:10.779Z,5.35
2019-04-01T02:49:40.801Z,5.30
2019-04-01T02:52:10.858Z,5.28
2019-04-01T02:54:41.031Z,5.24
2019-04-01T02:57:11.131Z,5.23
2019-04-01T02:59:41.048Z,5.16
2019-04-01T03:02:11.144Z,5.10
2019-04-01T03:04:41.612Z,5.05
2019-04-01T03:07:11.475Z,4.98
2019-04-01T03:09:41.787Z,4.97
2019-04-01T03:12:12.190Z,4.91
2019-04-01T03:14:42.004Z,4.88
2019-04-01T03:17:11.826Z,4.87
2019-04-01T03:19:41.727Z,4.86
2019-04-01T03:22:11.759Z,4.81
2019-04-01T03:24:41.686Z,4.82
2019-04-01T03:27:11.474Z,4.82
2019-04-01T03:29:41.524Z,4.81
2019-04-01T03:32:11.465Z,4.79
2019-04-01T03:34:42.196Z,4.77
2019-04-01T03:37:12.315Z,4.78
2019-04-01T03:39:42.718Z,4.79
2019-04-01T03:42:13.400Z,4.80
2019-04-01T03:44:43.599Z,4.86
2019-04-01T03:47:13.708Z,4.95
2019-04-01T03:49:44.035Z,4.95
2019-04-01T03:52:14.703Z,4.97
2019-04-01T03:54:44.643Z,4.99
2019-04-01T03:57:15.190Z,4.97
2019-04-01T03:59:45.880Z,4.97
2019-04-01T04:02:15.763Z,4.96
2019-04-01T04:04:46.086Z,4.99
2019-04-01T04:07:16.292Z,5.03
2019-04-01T04:09:46.403Z,5.05
2019-04-01T04:12:16.475Z,5.09
2019-04-01T04:14:50.895Z,5.09
2019-04-01T04:17:18.994Z,5.11
2019-04-01T04:19:49.179Z,5.11
2019-04-01T04:22:19.340Z,5.12
2019-04-01T04:24:49.354Z,5.11
2019-04-01T04:27:19.267Z,5.16
2019-04-01T04:29:49.520Z,5.20
2019-04-01T04:32:20.065Z,5.29
2019-04-01T04:34:50.347Z,5.44
2019-04-01T04:37:20.941Z,5.45
2019-04-01T04:39:51.486Z,5.43
2019-04-01T04:42:21.395Z,5.46
2019-04-01T04:44:51.525Z,5.50
2019-04-01T04:47:21.667Z,5.44
2019-04-01T04:49:52.109Z,5.40
2019-04-01T04:52:22.237Z,5.37
2019-04-01T04:54:52.421Z,5.31
2019-04-01T04:57:25.745Z,5.44
2019-04-01T04:59:55.863Z,5.58
2019-04-01T05:02:26.055Z,5.78
2019-04-01T05:04:56.496Z,5.99
2019-04-01T05:07:26.661Z,6.12
2019-04-01T05:09:56.809Z,6.28
2019-04-01T05:12:26.744Z,6.36
2019-04-01T05:14:57.116Z,6.50
2019-04-01T05:17:27.992Z,6.57
2019-04-01T05:19:58.723Z,6.49
2019-04-01T05:22:29.010Z,6.46
2019-04-01T05:24:59.113Z,6.49
2019-04-01T05:27:30.477Z,6.45
2019-04-01T05:30:01.304Z,6.41
2019-04-01T05:32:32.824Z,6.43
2019-04-01T05:35:03.760Z,6.25
2019-04-01T05:37:34.941Z,6.34
2019-04-01T05:40:05.663Z,6.30
2019-04-01T05:42:36.794Z,6.32
2019-04-01T05:45:08.519Z,6.49
2019-04-01T05:47:48.023Z,6.67
2019-04-01T05:50:18.736Z,6.83
2019-04-01T05:52:49.511Z,6.93
2019-04-01T05:55:19.786Z,6.96
2019-04-01T05:57:49.804Z,6.92
2019-04-01T06:00:26.308Z,6.86
2019-04-01T06:02:56.710Z,6.80
2019-04-01T06:05:27.707Z,6.81
2019-04-01T06:07:57.993Z,6.84
2019-04-01T06:10:28.227Z,7.02
2019-04-01T06:12:59.011Z,7.20
2019-04-01T06:15:29.379Z,7.11
2019-04-01T06:17:59.968Z,7.12
2019-04-01T06:20:30.249Z,7.09
2019-04-01T06:23:00.845Z,7.03
2019-04-01T06:25:31.440Z,7.14
2019-04-01T06:28:01.533Z,7.32
2019-04-01T06:30:31.973Z,7.52
2019-04-01T06:33:01.971Z,7.63
2019-04-01T06:35:32.515Z,7.58
2019-04-01T06:38:02.802Z,7.53
2019-04-01T06:40:33.935Z,7.57
2019-04-01T06:43:04.463Z,7.63
2019-04-01T06:45:34.741Z,7.65
2019-04-01T06:48:04.970Z,7.69
2019-04-01T06:50:35.190Z,7.68
2019-04-01T06:53:05.536Z,7.69
2019-04-01T06:55:36.444Z,7.55
2019-04-01T06:58:07.087Z,7.34
2019-04-01T07:00:37.890Z,7.04
2019-04-01T07:03:08.338Z,6.99
2019-04-01T07:05:39.173Z,7.04
2019-04-01T07:08:09.902Z,7.19
2019-04-01T07:10:40.356Z,7.34
2019-04-01T07:13:11.069Z,7.39
2019-04-01T07:15:42.224Z,7.38
2019-04-01T07:18:12.502Z,7.44
2019-04-01T07:20:42.473Z,7.47
2019-04-01T07:23:12.851Z,7.46
2019-04-01T07:25:43.128Z,7.50
2019-04-01T07:28:13.349Z,7.63
2019-04-01T07:30:43.691Z,7.77
2019-04-01T07:33:14.218Z,7.86
2019-04-01T07:35:46.658Z,7.94
2019-04-01T07:38:16.877Z,7.87
2019-04-01T07:40:47.668Z,7.83
2019-04-01T07:43:18.094Z,7.75
2019-04-01T07:45:48.589Z,7.68
2019-04-01T07:48:19.188Z,7.61
2019-04-01T07:50:49.397Z,7.50
2019-04-01T07:53:20.043Z,7.43
2019-04-01T07:55:51.004Z,7.27
2019-04-01T07:58:21.498Z,7.26
2019-04-01T08:00:51.791Z,7.28
2019-04-01T08:03:22.512Z,7.20
2019-04-01T08:05:52.853Z,7.26
2019-04-01T08:08:23.359Z,7.32
2019-04-01T08:10:53.528Z,7.32
2019-04-01T08:13:24.153Z,7.18
2019-04-01T08:15:54.479Z,7.05
2019-04-01T08:18:24.936Z,6.99
2019-04-01T08:20:55.197Z,7.02
2019-04-01T08:23:25.108Z,7.04
2019-04-01T08:25:55.539Z,7.12
2019-04-01T08:28:26.316Z,7.14
2019-04-01T08:30:56.593Z,7.18
2019-04-01T08:33:26.991Z,7.26
2019-04-01T08:35:57.359Z,7.24
2019-04-01T08:38:27.501Z,7.22
2019-04-01T08:40:58.279Z,7.19
2019-04-01T08:43:28.248Z,7.32
2019-04-01T08:45:58.079Z,7.41
2019-04-01T08:48:28.370Z,7.41
2019-04-01T08:50:58.697Z,7.27
2019-04-01T08:53:29.806Z,7.17
2019-04-01T08:56:00.945Z,7.13
2019-04-01T08:58:31.499Z,7.18
2019-04-01T09:01:01.693Z,7.28
2019-04-01T09:03:31.805Z,7.38
2019-04-01T09:06:02.348Z,7.49
2019-04-01T09:08:34.001Z,7.53
2019-04-01T09:11:04.083Z,7.69
2019-04-01T09:13:34.527Z,7.76
2019-04-01T09:16:04.527Z,7.83
2019-04-01T09:18:34.886Z,7.74
2019-04-01T09:21:05.374Z,7.72
2019-04-01T09:23:35.438Z,7.63
2019-04-01T09:26:06.102Z,7.59
2019-04-01T09:28:36.878Z,7.58
2019-04-01T09:31:07.445Z,7.57
2019-04-01T09:33:37.657Z,7.58
2019-04-01T09:36:10.883Z,7.60
2019-04-01T09:38:42.671Z,7.74
2019-04-01T09:41:13.586Z,7.87
2019-04-01T09:43:44.334Z,7.98
2019-04-01T09:46:14.649Z,8.18
2019-04-01T09:48:44.595Z,8.37
2019-04-01T09:51:15.475Z,8.53
2019-04-01T09:53:45.557Z,8.66
2019-04-01T09:56:15.641Z,8.62
2019-04-01T09:58:45.859Z,8.46
2019-04-01T10:01:17.848Z,8.25
2019-04-01T10:03:48.543Z,7.95
2019-04-01T10:06:18.696Z,7.82
2019-04-01T10:08:48.859Z,8.12
2019-04-01T10:11:18.894Z,8.50
2019-04-01T10:13:49.088Z,8.82
2019-04-01T10:16:19.451Z,8.96
2019-04-01T10:18:49.812Z,8.89
2019-04-01T10:21:20.152Z,8.73
2019-04-01T10:23:50.937Z,8.62
2019-04-01T10:26:21.739Z,8.56
2019-04-01T10:28:51.957Z,8.35
2019-04-01T10:31:22.749Z,8.05
2019-04-01T10:33:52.693Z,7.86
2019-04-01T10:36:22.920Z,7.68
2019-04-01T10:38:53.024Z,7.35
2019-04-01T10:41:23.240Z,7.10
2019-04-01T10:43:53.337Z,6.93
2019-04-01T10:46:23.490Z,6.83
2019-04-01T10:48:53.772Z,6.79
2019-04-01T10:51:24.102Z,6.81
2019-04-01T10:53:54.152Z,6.97
2019-04-01T10:56:24.669Z,7.25
2019-04-01T10:58:54.580Z,7.55
2019-04-01T11:01:24.941Z,7.75
2019-04-01T11:03:54.970Z,7.72
2019-04-01T11:06:25.278Z,7.62
2019-04-01T11:08:55.253Z,7.48
2019-04-01T11:11:25.531Z,7.42
2019-04-01T11:13:56.906Z,7.34
2019-04-01T11:16:27.034Z,7.22
2019-04-01T11:18:58.209Z,7.19
2019-04-01T11:21:29.144Z,7.19
2019-04-01T11:23:59.445Z,7.19
2019-04-01T11:26:29.670Z,7.11
2019-04-01T11:28:59.680Z,7.03
2019-04-01T11:31:29.833Z,7.14
2019-04-01T11:33:59.958Z,7.26
2019-04-01T11:36:30.239Z,7.54
2019-04-01T11:39:00.507Z,7.89
2019-04-01T11:41:31.487Z,7.91
2019-04-01T11:44:02.049Z,7.89
2019-04-01T11:46:32.248Z,7.68
2019-04-01T11:49:02.657Z,7.48
2019-04-01T11:51:38.658Z,7.41
2019-04-01T11:54:08.158Z,7.50
2019-04-01T11:56:37.295Z,7.48
2019-04-01T11:59:08.516Z,7.42
2019-04-01T12:01:39.671Z,7.40
2019-04-01T12:04:09.842Z,7.28
2019-04-01T12:06:39.898Z,7.42
2019-04-01T12:09:10.245Z,7.45
2019-04-01T12:11:40.430Z,7.19
2019-04-01T12:14:10.501Z,6.90
2019-04-01T12:16:41.163Z,6.88
2019-04-01T12:19:11.319Z,6.97
2019-04-01T12:21:41.679Z,7.11
2019-04-01T12:24:12.489Z,7.11
2019-04-01T12:26:42.612Z,7.01
2019-04-01T12:29:14.457Z,6.99
2019-04-01T12:31:45.202Z,7.03
2019-04-01T12:34:15.376Z,7.13
2019-04-01T12:36:45.590Z,7.10
2019-04-01T12:39:15.759Z,7.02
2019-04-01T12:41:47.373Z,6.88
2019-04-01T12:44:17.402Z,6.77
2019-04-01T12:46:47.512Z,6.52
2019-04-01T12:49:17.398Z,6.43
2019-04-01T12:51:47.770Z,6.33
2019-04-01T12:54:18.799Z,6.16
2019-04-01T12:56:49.043Z,6.01
2019-04-01T12:59:18.982Z,5.77
2019-04-01T13:01:49.622Z,5.50
2019-04-01T13:04:20.657Z,5.28
2019-04-01T13:06:51.610Z,5.20
2019-04-01T13:09:22.298Z,5.20
2019-04-01T13:11:54.071Z,5.30
2019-04-01T13:14:24.653Z,5.33
2019-04-01T13:16:54.541Z,5.32
2019-04-01T13:19:25.827Z,5.28
2019-04-01T13:21:55.897Z,5.25
2019-04-01T13:24:25.887Z,5.22
2019-04-01T13:26:56.221Z,5.24
2019-04-01T13:29:26.616Z,5.33
2019-04-01T13:32:00.441Z,5.37
2019-04-01T13:34:29.181Z,5.41
2019-04-01T13:36:59.458Z,5.45
2019-04-01T13:39:29.524Z,5.45
2019-04-01T13:41:59.767Z,5.45
2019-04-01T13:44:36.879Z,5.52
2019-04-01T13:47:02.496Z,5.55
2019-04-01T13:49:32.490Z,5.51
2019-04-01T13:52:03.830Z,5.44
2019-04-01T13:54:33.944Z,5.40
2019-04-01T13:57:04.321Z,5.35
2019-04-01T13:59:48.491Z,5.28
2019-04-01T14:02:07.071Z,5.46
2019-04-01T14:04:37.179Z,5.51
2019-04-01T14:07:07.688Z,5.51
2019-04-01T14:09:37.665Z,5.41
2019-04-01T14:12:08.489Z,5.32
2019-04-01T14:14:38.587Z,5.12
2019-04-01T14:17:08.961Z,5.07
2019-04-01T14:19:43.018Z,5.08
2019-04-01T14:22:15.970Z,5.01
2019-04-01T14:24:46.176Z,4.81
2019-04-01T14:27:16.618Z,4.69
2019-04-01T14:29:47.115Z,4.63
2019-04-01T14:32:18.279Z,4.64
2019-04-01T14:34:50.487Z,4.56
2019-04-01T14:37:26.147Z,4.42
2019-04-01T14:39:52.782Z,4.38
2019-04-01T14:42:23.207Z,4.36
2019-04-01T14:44:59.520Z,4.45
2019-04-01T14:47:29.637Z,4.50
2019-04-01T14:50:00.075Z,4.49
2019-04-01T14:52:32.802Z,4.52
2019-04-01T14:55:03.354Z,4.33
2019-04-01T14:57:33.477Z,4.31
2019-04-01T15:00:05.209Z,4.33
2019-04-01T15:02:35.559Z,4.31
2019-04-01T15:05:05.890Z,4.25
2019-04-01T15:07:35.933Z,4.23
2019-04-01T15:10:07.148Z,4.24
2019-04-01T15:12:37.437Z,4.15
2019-04-01T15:15:07.555Z,4.15
2019-04-01T15:17:38.657Z,4.09
2019-04-01T15:20:09.054Z,4.16
2019-04-01T15:22:39.599Z,4.22
2019-04-01T15:25:10.065Z,4.18
2019-04-01T15:27:40.983Z,4.25
2019-04-01T15:30:14.091Z,4.21
2019-04-01T15:32:43.495Z,4.22
2019-04-01T15:35:14.597Z,4.21
2019-04-01T15:37:45.034Z,4.11
2019-04-01T15:40:15.411Z,4.13
2019-04-01T15:42:45.853Z,4.15
2019-04-01T15:45:16.218Z,4.15
2019-04-01T15:47:46.220Z,4.17
2019-04-01T15:50:27.760Z,4.12
2019-04-01T15:52:48.979Z,4.16
2019-04-01T15:55:19.576Z,4.13
2019-04-01T15:57:50.157Z,4.05
2019-04-01T16:00:20.713Z,4.07
2019-04-01T16:02:51.034Z,4.06
2019-04-01T16:05:22.424Z,4.05
2019-04-01T16:07:52.280Z,4.04
2019-04-01T16:10:22.392Z,4.05
2019-04-01T16:12:52.369Z,4.09
2019-04-01T16:15:22.600Z,4.13
2019-04-01T16:17:53.988Z,4.16
2019-04-01T16:20:25.973Z,4.12
2019-04-01T16:22:56.263Z,4.05
2019-04-01T16:25:26.666Z,3.91
2019-04-01T16:27:57.049Z,3.68
2019-04-01T16:30:28.072Z,3.58
2019-04-01T16:32:58.807Z,3.50
2019-04-01T16:35:28.786Z,3.45
2019-04-01T16:37:59.584Z,3.48
2019-04-01T16:40:30.003Z,3.43
2019-04-01T16:43:00.107Z,3.43
2019-04-01T16:45:30.513Z,3.49
2019-04-01T16:48:01.027Z,3.48
2019-04-01T16:50:31.563Z,3.50
2019-04-01T16:53:01.817Z,3.39
2019-04-01T16:55:32.237Z,3.28
2019-04-01T16:58:03.180Z,3.22
2019-04-01T17:00:33.617Z,3.18
2019-04-01T17:03:04.086Z,3.15
2019-04-01T17:05:34.080Z,3.19
2019-04-01T17:08:04.368Z,3.26
2019-04-01T17:10:35.423Z,3.26
2019-04-01T17:13:07.361Z,3.29
2019-04-01T17:15:37.523Z,3.29
2019-04-01T17:18:07.751Z,3.25
2019-04-01T17:20:37.862Z,3.25
2019-04-01T17:23:07.863Z,3.26
2019-04-01T17:25:38.051Z,3.20
2019-04-01T17:28:08.550Z,3.21
2019-04-01T17:30:39.274Z,3.22
2019-04-01T17:33:09.421Z,3.24
2019-04-01T17:35:39.483Z,3.26
2019-04-01T17:38:09.619Z,3.20
2019-04-01T17:40:39.491Z,3.20
2019-04-01T17:43:13.361Z,3.18
2019-04-01T17:45:42.668Z,3.19
2019-04-01T17:48:13.098Z,3.20
2019-04-01T17:50:43.078Z,3.20
2019-04-01T17:53:14.187Z,3.18
2019-04-01T17:55:45.726Z,3.22
2019-04-01T17:58:16.129Z,3.20
2019-04-01T18:00:51.412Z,3.15
2019-04-01T18:03:24.445Z,3.17
2019-04-01T18:05:54.816Z,3.19
2019-04-01T18:08:25.430Z,3.15
2019-04-01T18:10:57.166Z,3.12
2019-04-01T18:13:27.535Z,3.18
2019-04-01T18:15:57.943Z,3.13
2019-04-01T18:18:27.854Z,3.14
2019-04-01T18:20:58.276Z,3.13
2019-04-01T18:23:28.714Z,3.12
2019-04-01T18:25:59.527Z,3.06
2019-04-01T18:28:30.066Z,3.09
2019-04-01T18:31:00.683Z,3.11
2019-04-01T18:33:31.368Z,3.17
2019-04-01T18:36:01.740Z,3.17
2019-04-01T18:38:34.388Z,3.26
2019-04-01T18:41:05.271Z,3.28
2019-04-01T18:43:35.651Z,3.25
2019-04-01T18:46:05.704Z,3.25
2019-04-01T18:48:35.882Z,3.17
2019-04-01T18:51:05.857Z,3.14
2019-04-01T18:53:36.336Z,3.09
2019-04-01T18:56:06.652Z,3.05
2019-04-01T18:58:36.751Z,2.99
2019-04-01T19:01:07.421Z,2.84
2019-04-01T19:03:39.480Z,2.74
2019-04-01T19:06:10.760Z,2.67
2019-04-01T19:08:40.700Z,2.57
2019-04-01T19:11:11.065Z,2.42
2019-04-01T19:13:42.242Z,2.35
2019-04-01T19:16:15.463Z,2.26
2019-04-01T19:18:44.818Z,2.15
2019-04-01T19:21:15.371Z,2.08
2019-04-01T19:23:45.633Z,2.03
2019-04-01T19:26:15.858Z,1.98
2019-04-01T19:28:47.075Z,1.91
2019-04-01T19:31:17.379Z,1.89
2019-04-01T19:33:47.673Z,1.83
2019-04-01T19:36:17.718Z,1.82
2019-04-01T19:38:47.835Z,1.79
2019-04-01T19:41:17.984Z,1.75
2019-04-01T19:43:51.050Z,1.74
2019-04-01T19:46:20.194Z,1.67
2019-04-01T19:48:50.261Z,1.63
2019-04-01T19:51:20.356Z,1.63
2019-04-01T19:53:50.322Z,1.60
2019-04-01T19:56:21.070Z,1.58
2019-04-01T19:58:51.985Z,1.56
2019-04-01T20:01:24.708Z,1.54
2019-04-01T20:03:54.206Z,1.51
2019-04-01T20:06:24.386Z,1.52
2019-04-01T20:08:54.800Z,1.50
2019-04-01T20:11:24.996Z,1.45
2019-04-01T20:13:55.131Z,1.47
2019-04-01T20:16:25.134Z,1.49
2019-04-01T20:18:55.033Z,1.51
2019-04-01T20:21:24.977Z,1.47
2019-04-01T20:23:55.115Z,1.47
2019-04-01T20:26:25.224Z,1.46
2019-04-01T20:28:55.221Z,1.47
2019-04-01T20:31:25.418Z,1.50
2019-04-01T20:33:55.620Z,1.49
2019-04-01T20:36:28.812Z,1.46
2019-04-01T20:38:59.737Z,1.45
2019-04-01T20:41:30.637Z,1.44
2019-04-01T20:44:03.229Z,1.45
2019-04-01T20:46:33.377Z,1.42
2019-04-01T20:49:03.735Z,1.37
2019-04-01T20:51:33.642Z,1.38
2019-04-01T20:54:03.535Z,1.36
2019-04-01T20:56:34.243Z,1.35
2019-04-01T20:59:04.239Z,1.36
2019-04-01T21:01:35.332Z,1.36
2019-04-01T21:04:06.446Z,1.35
2019-04-01T21:06:36.499Z,1.37
2019-04-01T21:09:08.031Z,1.37
2019-04-01T21:11:40.071Z,1.37
2019-04-01T21:14:10.585Z,1.37
2019-04-01T21:16:40.730Z,1.33
2019-04-01T21:19:14.174Z,1.33
2019-04-01T21:21:44.064Z,1.33
2019-04-01T21:24:14.505Z,1.27
2019-04-01T21:26:45.051Z,1.25
2019-04-01T21:29:15.183Z,1.28
2019-04-01T21:31:45.790Z,1.25
2019-04-01T21:34:17.095Z,1.25
2019-04-01T21:36:47.795Z,1.21
2019-04-01T21:39:18.009Z,1.23
2019-04-01T21:41:47.869Z,1.23
2019-04-01T21:44:18.645Z,1.22
2019-04-01T21:46:48.677Z,1.21
2019-04-01T21:49:18.753Z,1.19
2019-04-01T21:51:49.159Z,1.16
2019-04-01T21:54:19.366Z,1.14
2019-04-01T21:56:49.401Z,1.13
2019-04-01T21:59:19.793Z,1.13
2019-04-01T22:01:49.944Z,1.13
2019-04-01T22:04:20.228Z,1.11
2019-04-01T22:06:50.239Z,1.11
2019-04-01T22:09:20.065Z,1.08
2019-04-01T22:11:49.672Z,1.08
2019-04-01T22:14:19.687Z,1.06
2019-04-01T22:16:49.587Z,1.03
2019-04-01T22:19:19.564Z,1.04
2019-04-01T22:21:49.618Z,1.00
2019-04-01T22:24:20.166Z,1.01
2019-04-01T22:26:50.271Z,1.00
2019-04-01T22:29:20.149Z,0.99
2019-04-01T22:31:50.769Z,0.97
2019-04-01T22:34:20.722Z,0.97
2019-04-01T22:36:50.866Z,0.97
2019-04-01T22:39:26.943Z,0.96
2019-04-01T22:41:52.662Z,0.92
2019-04-01T22:44:23.409Z,0.90
2019-04-01T22:46:54.304Z,0.87
2019-04-01T22:49:24.123Z,0.88
2019-04-01T22:51:54.262Z,0.83
2019-04-01T22:54:25.204Z,0.82
2019-04-01T22:56:55.991Z,0.77
2019-04-01T22:59:26.223Z,0.73
2019-04-01T23:01:59.280Z,0.70
2019-04-01T23:04:28.263Z,0.69
2019-04-01T23:06:58.353Z,0.68
2019-04-01T23:09:29.023Z,0.68
2019-04-01T23:11:59.031Z,0.64
2019-04-01T23:14:29.034Z,0.61
2019-04-01T23:16:59.374Z,0.64
2019-04-01T23:19:34.321Z,0.67
2019-04-01T23:22:04.676Z,0.65
2019-04-01T23:24:34.514Z,0.61
2019-04-01T23:27:04.948Z,0.60
2019-04-01T23:29:34.865Z,0.60
2019-04-01T23:32:05.011Z,0.64
2019-04-01T23:34:38.451Z,0.65
2019-04-01T23:37:09.262Z,0.65
2019-04-01T23:39:39.925Z,0.65
2019-04-01T23:42:10.129Z,0.66
2019-04-01T23:44:40.165Z,0.62
2019-04-01T23:47:09.969Z,0.62
2019-04-01T23:49:40.426Z,0.60
2019-04-01T23:52:10.881Z,0.58
2019-04-01T23:54:40.747Z,0.53
2019-04-01T23:57:13.040Z,0.53
2019-04-01T23:59:43.387Z,0.51
